sensor_id;sensor_type;location;lat;lon;timestamp;P1;durP1;ratioP1;P2;durP2;ratioP2
74904;SDS011;63465;50.862;6.220;2023-04-25T00:02:20;9.33;;;4.40;;
74904;SDS011;63465;50.862;6.220;2023-04-25T00:04:45;10.37;;;4.70;;
74904;SDS011;63465;50.862;6.220;2023-04-25T00:07:11;10.20;;;4.37;;
74904;SDS011;63465;50.862;6.220;2023-04-25T00:09:36;11.87;;;3.80;;
74904;SDS011;63465;50.862;6.220;2023-04-25T00:12:01;13.93;;;4.40;;
74904;SDS011;63465;50.862;6.220;2023-04-25T00:14:27;7.43;;;3.97;;
74904;SDS011;63465;50.862;6.220;2023-04-25T00:16:54;8.03;;;4.57;;
74904;SDS011;63465;50.862;6.220;2023-04-25T00:19:19;9.50;;;4.30;;
74904;SDS011;63465;50.862;6.220;2023-04-25T00:21:45;15.90;;;3.70;;
74904;SDS011;63465;50.862;6.220;2023-04-25T00:24:11;9.77;;;4.60;;
74904;SDS011;63465;50.862;6.220;2023-04-25T00:26:36;13.40;;;4.33;;
74904;SDS011;63465;50.862;6.220;2023-04-25T00:29:02;8.80;;;3.97;;
74904;SDS011;63465;50.862;6.220;2023-04-25T00:31:27;12.53;;;4.00;;
74904;SDS011;63465;50.862;6.220;2023-04-25T00:33:54;10.70;;;5.07;;
74904;SDS011;63465;50.862;6.220;2023-04-25T00:36:19;12.90;;;5.27;;
74904;SDS011;63465;50.862;6.220;2023-04-25T00:38:44;10.73;;;4.40;;
74904;SDS011;63465;50.862;6.220;2023-04-25T00:41:10;6.27;;;4.00;;
74904;SDS011;63465;50.862;6.220;2023-04-25T00:43:36;20.73;;;4.50;;
74904;SDS011;63465;50.862;6.220;2023-04-25T00:46:02;12.10;;;4.60;;
74904;SDS011;63465;50.862;6.220;2023-04-25T00:48:27;6.47;;;3.93;;
74904;SDS011;63465;50.862;6.220;2023-04-25T00:50:54;12.07;;;5.20;;
74904;SDS011;63465;50.862;6.220;2023-04-25T00:53:22;9.00;;;4.30;;
74904;SDS011;63465;50.862;6.220;2023-04-25T00:55:48;21.57;;;4.67;;
74904;SDS011;63465;50.862;6.220;2023-04-25T00:58:15;11.13;;;5.63;;
74904;SDS011;63465;50.862;6.220;2023-04-25T01:00:45;9.53;;;4.80;;
74904;SDS011;63465;50.862;6.220;2023-04-25T01:03:12;11.43;;;4.77;;
74904;SDS011;63465;50.862;6.220;2023-04-25T01:05:39;6.53;;;3.90;;
74904;SDS011;63465;50.862;6.220;2023-04-25T01:08:06;9.10;;;4.30;;
74904;SDS011;63465;50.862;6.220;2023-04-25T01:10:32;19.90;;;5.20;;
74904;SDS011;63465;50.862;6.220;2023-04-25T01:12:57;11.50;;;4.27;;
74904;SDS011;63465;50.862;6.220;2023-04-25T01:15:22;7.30;;;4.20;;
74904;SDS011;63465;50.862;6.220;2023-04-25T01:17:48;18.73;;;4.40;;
74904;SDS011;63465;50.862;6.220;2023-04-25T01:20:14;7.63;;;4.27;;
74904;SDS011;63465;50.862;6.220;2023-04-25T01:22:40;8.23;;;4.00;;
74904;SDS011;63465;50.862;6.220;2023-04-25T01:25:07;14.57;;;4.27;;
74904;SDS011;63465;50.862;6.220;2023-04-25T01:27:32;8.40;;;3.60;;
74904;SDS011;63465;50.862;6.220;2023-04-25T01:29:58;16.23;;;4.57;;
74904;SDS011;63465;50.862;6.220;2023-04-25T01:32:24;13.07;;;5.03;;
74904;SDS011;63465;50.862;6.220;2023-04-25T01:38:12;7.80;;;4.20;;
74904;SDS011;63465;50.862;6.220;2023-04-25T01:40:38;8.80;;;4.30;;
74904;SDS011;63465;50.862;6.220;2023-04-25T01:43:05;13.97;;;4.50;;
74904;SDS011;63465;50.862;6.220;2023-04-25T01:45:31;23.53;;;3.93;;
74904;SDS011;63465;50.862;6.220;2023-04-25T01:47:56;11.97;;;4.17;;
74904;SDS011;63465;50.862;6.220;2023-04-25T01:50:24;15.67;;;3.90;;
74904;SDS011;63465;50.862;6.220;2023-04-25T01:52:50;6.63;;;4.07;;
74904;SDS011;63465;50.862;6.220;2023-04-25T01:55:16;19.80;;;4.60;;
74904;SDS011;63465;50.862;6.220;2023-04-25T01:57:41;11.33;;;3.93;;
74904;SDS011;63465;50.862;6.220;2023-04-25T02:00:06;10.63;;;4.10;;
74904;SDS011;63465;50.862;6.220;2023-04-25T02:02:34;18.07;;;4.50;;
74904;SDS011;63465;50.862;6.220;2023-04-25T02:04:59;9.90;;;4.30;;
74904;SDS011;63465;50.862;6.220;2023-04-25T02:07:25;18.97;;;4.27;;
74904;SDS011;63465;50.862;6.220;2023-04-25T02:09:51;8.63;;;3.50;;
74904;SDS011;63465;50.862;6.220;2023-04-25T02:12:16;10.73;;;3.60;;
74904;SDS011;63465;50.862;6.220;2023-04-25T02:14:41;11.30;;;3.83;;
74904;SDS011;63465;50.862;6.220;2023-04-25T02:17:07;11.80;;;4.03;;
74904;SDS011;63465;50.862;6.220;2023-04-25T02:19:32;13.43;;;4.23;;
74904;SDS011;63465;50.862;6.220;2023-04-25T02:21:57;9.90;;;4.10;;
74904;SDS011;63465;50.862;6.220;2023-04-25T02:24:23;7.53;;;3.67;;
74904;SDS011;63465;50.862;6.220;2023-04-25T02:26:48;19.23;;;4.50;;
74904;SDS011;63465;50.862;6.220;2023-04-25T02:29:14;11.17;;;4.13;;
74904;SDS011;63465;50.862;6.220;2023-04-25T02:31:40;7.77;;;3.70;;
74904;SDS011;63465;50.862;6.220;2023-04-25T02:34:05;19.40;;;4.53;;
74904;SDS011;63465;50.862;6.220;2023-04-25T02:36:30;11.00;;;3.70;;
74904;SDS011;63465;50.862;6.220;2023-04-25T02:38:59;16.63;;;3.87;;
74904;SDS011;63465;50.862;6.220;2023-04-25T02:41:25;10.30;;;3.90;;
74904;SDS011;63465;50.862;6.220;2023-04-25T02:43:50;12.43;;;4.83;;
74904;SDS011;63465;50.862;6.220;2023-04-25T02:46:15;22.43;;;4.47;;
74904;SDS011;63465;50.862;6.220;2023-04-25T02:48:41;7.00;;;3.77;;
74904;SDS011;63465;50.862;6.220;2023-04-25T02:51:06;15.80;;;4.60;;
74904;SDS011;63465;50.862;6.220;2023-04-25T02:53:31;12.63;;;5.80;;
74904;SDS011;63465;50.862;6.220;2023-04-25T02:55:56;16.10;;;4.80;;
74904;SDS011;63465;50.862;6.220;2023-04-25T02:58:23;12.20;;;4.50;;
74904;SDS011;63465;50.862;6.220;2023-04-25T03:00:48;11.63;;;4.13;;
74904;SDS011;63465;50.862;6.220;2023-04-25T03:03:14;17.37;;;4.03;;
74904;SDS011;63465;50.862;6.220;2023-04-25T03:05:42;16.70;;;4.77;;
74904;SDS011;63465;50.862;6.220;2023-04-25T03:08:07;14.10;;;4.37;;
74904;SDS011;63465;50.862;6.220;2023-04-25T03:10:33;12.50;;;5.13;;
74904;SDS011;63465;50.862;6.220;2023-04-25T03:12:58;14.83;;;4.97;;
74904;SDS011;63465;50.862;6.220;2023-04-25T03:15:23;16.27;;;4.63;;
74904;SDS011;63465;50.862;6.220;2023-04-25T03:17:48;11.80;;;4.33;;
74904;SDS011;63465;50.862;6.220;2023-04-25T03:20:14;18.03;;;4.37;;
74904;SDS011;63465;50.862;6.220;2023-04-25T03:22:39;16.00;;;4.40;;
74904;SDS011;63465;50.862;6.220;2023-04-25T03:25:05;9.63;;;4.23;;
74904;SDS011;63465;50.862;6.220;2023-04-25T03:27:30;14.60;;;4.07;;
74904;SDS011;63465;50.862;6.220;2023-04-25T03:29:55;9.30;;;3.80;;
74904;SDS011;63465;50.862;6.220;2023-04-25T03:32:21;10.70;;;3.70;;
74904;SDS011;63465;50.862;6.220;2023-04-25T03:34:46;7.20;;;3.80;;
74904;SDS011;63465;50.862;6.220;2023-04-25T03:37:11;6.57;;;4.03;;
74904;SDS011;63465;50.862;6.220;2023-04-25T03:39:37;6.10;;;4.30;;
74904;SDS011;63465;50.862;6.220;2023-04-25T03:42:03;9.73;;;4.00;;
74904;SDS011;63465;50.862;6.220;2023-04-25T03:44:29;21.10;;;3.93;;
74904;SDS011;63465;50.862;6.220;2023-04-25T03:46:54;13.00;;;5.17;;
74904;SDS011;63465;50.862;6.220;2023-04-25T03:49:19;6.80;;;3.63;;
74904;SDS011;63465;50.862;6.220;2023-04-25T03:51:44;15.23;;;4.87;;
74904;SDS011;63465;50.862;6.220;2023-04-25T03:54:10;15.13;;;4.83;;
74904;SDS011;63465;50.862;6.220;2023-04-25T03:56:35;14.77;;;3.80;;
74904;SDS011;63465;50.862;6.220;2023-04-25T03:59:00;8.27;;;4.40;;
74904;SDS011;63465;50.862;6.220;2023-04-25T04:01:26;6.60;;;3.83;;
74904;SDS011;63465;50.862;6.220;2023-04-25T04:03:51;13.20;;;3.97;;
74904;SDS011;63465;50.862;6.220;2023-04-25T04:06:16;11.43;;;4.30;;
74904;SDS011;63465;50.862;6.220;2023-04-25T04:08:42;13.17;;;4.17;;
74904;SDS011;63465;50.862;6.220;2023-04-25T04:11:07;13.90;;;4.30;;
74904;SDS011;63465;50.862;6.220;2023-04-25T04:13:32;16.87;;;4.90;;
74904;SDS011;63465;50.862;6.220;2023-04-25T04:15:58;8.03;;;3.47;;
74904;SDS011;63465;50.862;6.220;2023-04-25T04:18:23;17.47;;;4.70;;
74904;SDS011;63465;50.862;6.220;2023-04-25T04:20:49;12.73;;;4.30;;
74904;SDS011;63465;50.862;6.220;2023-04-25T04:23:14;14.30;;;6.60;;
74904;SDS011;63465;50.862;6.220;2023-04-25T04:25:40;10.83;;;4.10;;
74904;SDS011;63465;50.862;6.220;2023-04-25T04:28:05;11.43;;;4.30;;
74904;SDS011;63465;50.862;6.220;2023-04-25T04:30:31;11.80;;;3.70;;
74904;SDS011;63465;50.862;6.220;2023-04-25T04:32:56;10.30;;;4.33;;
74904;SDS011;63465;50.862;6.220;2023-04-25T04:35:22;18.07;;;4.53;;
74904;SDS011;63465;50.862;6.220;2023-04-25T04:37:48;9.13;;;3.73;;
74904;SDS011;63465;50.862;6.220;2023-04-25T04:40:14;15.63;;;3.83;;
74904;SDS011;63465;50.862;6.220;2023-04-25T04:42:43;15.97;;;3.70;;
74904;SDS011;63465;50.862;6.220;2023-04-25T04:45:10;9.73;;;4.90;;
74904;SDS011;63465;50.862;6.220;2023-04-25T04:47:36;13.30;;;3.93;;
74904;SDS011;63465;50.862;6.220;2023-04-25T04:50:02;14.60;;;4.77;;
74904;SDS011;63465;50.862;6.220;2023-04-25T04:52:28;19.77;;;4.40;;
74904;SDS011;63465;50.862;6.220;2023-04-25T04:54:53;18.03;;;3.83;;
74904;SDS011;63465;50.862;6.220;2023-04-25T04:57:18;13.03;;;3.70;;
74904;SDS011;63465;50.862;6.220;2023-04-25T04:59:44;13.83;;;3.80;;
74904;SDS011;63465;50.862;6.220;2023-04-25T05:02:09;11.10;;;3.70;;
74904;SDS011;63465;50.862;6.220;2023-04-25T05:04:35;11.47;;;4.23;;
74904;SDS011;63465;50.862;6.220;2023-04-25T05:07:00;17.47;;;4.47;;
74904;SDS011;63465;50.862;6.220;2023-04-25T05:09:26;12.23;;;4.70;;
74904;SDS011;63465;50.862;6.220;2023-04-25T05:11:51;14.30;;;4.43;;
74904;SDS011;63465;50.862;6.220;2023-04-25T05:14:17;15.17;;;4.97;;
74904;SDS011;63465;50.862;6.220;2023-04-25T05:16:42;12.00;;;3.80;;
74904;SDS011;63465;50.862;6.220;2023-04-25T05:19:08;9.00;;;3.70;;
74904;SDS011;63465;50.862;6.220;2023-04-25T05:21:33;25.10;;;4.70;;
74904;SDS011;63465;50.862;6.220;2023-04-25T05:23:59;11.00;;;4.30;;
74904;SDS011;63465;50.862;6.220;2023-04-25T05:26:25;8.60;;;4.03;;
74904;SDS011;63465;50.862;6.220;2023-04-25T05:28:50;17.10;;;4.47;;
74904;SDS011;63465;50.862;6.220;2023-04-25T05:31:16;13.67;;;4.13;;
74904;SDS011;63465;50.862;6.220;2023-04-25T05:33:41;11.23;;;4.60;;
74904;SDS011;63465;50.862;6.220;2023-04-25T05:36:06;9.23;;;4.23;;
74904;SDS011;63465;50.862;6.220;2023-04-25T05:38:32;15.40;;;4.50;;
74904;SDS011;63465;50.862;6.220;2023-04-25T05:40:57;18.07;;;4.10;;
74904;SDS011;63465;50.862;6.220;2023-04-25T05:43:23;14.93;;;4.93;;
74904;SDS011;63465;50.862;6.220;2023-04-25T05:45:48;13.63;;;4.50;;
74904;SDS011;63465;50.862;6.220;2023-04-25T05:48:14;14.53;;;4.60;;
74904;SDS011;63465;50.862;6.220;2023-04-25T05:50:39;16.87;;;4.77;;
74904;SDS011;63465;50.862;6.220;2023-04-25T05:53:04;11.20;;;4.30;;
74904;SDS011;63465;50.862;6.220;2023-04-25T05:55:30;19.70;;;5.10;;
74904;SDS011;63465;50.862;6.220;2023-04-25T05:57:56;8.63;;;4.60;;
74904;SDS011;63465;50.862;6.220;2023-04-25T06:00:21;13.87;;;4.00;;
74904;SDS011;63465;50.862;6.220;2023-04-25T06:02:47;16.00;;;4.57;;
74904;SDS011;63465;50.862;6.220;2023-04-25T06:05:13;12.33;;;4.50;;
74904;SDS011;63465;50.862;6.220;2023-04-25T06:07:38;12.83;;;4.00;;
74904;SDS011;63465;50.862;6.220;2023-04-25T06:10:04;8.47;;;3.90;;
74904;SDS011;63465;50.862;6.220;2023-04-25T06:12:31;16.80;;;5.10;;
74904;SDS011;63465;50.862;6.220;2023-04-25T06:14:57;8.97;;;3.80;;
74904;SDS011;63465;50.862;6.220;2023-04-25T06:17:22;7.80;;;4.30;;
74904;SDS011;63465;50.862;6.220;2023-04-25T06:19:48;7.17;;;3.60;;
74904;SDS011;63465;50.862;6.220;2023-04-25T06:22:13;10.93;;;4.33;;
74904;SDS011;63465;50.862;6.220;2023-04-25T06:24:38;12.67;;;4.50;;
74904;SDS011;63465;50.862;6.220;2023-04-25T06:27:04;12.23;;;4.17;;
74904;SDS011;63465;50.862;6.220;2023-04-25T06:29:30;10.57;;;3.00;;
74904;SDS011;63465;50.862;6.220;2023-04-25T06:31:55;8.30;;;2.93;;
74904;SDS011;63465;50.862;6.220;2023-04-25T06:34:20;18.13;;;4.17;;
74904;SDS011;63465;50.862;6.220;2023-04-25T06:36:46;11.23;;;4.10;;
74904;SDS011;63465;50.862;6.220;2023-04-25T06:39:11;10.87;;;4.43;;
74904;SDS011;63465;50.862;6.220;2023-04-25T06:41:36;5.20;;;2.80;;
74904;SDS011;63465;50.862;6.220;2023-04-25T06:44:02;13.70;;;3.57;;
74904;SDS011;63465;50.862;6.220;2023-04-25T06:46:27;11.67;;;3.43;;
74904;SDS011;63465;50.862;6.220;2023-04-25T06:48:52;11.40;;;3.13;;
74904;SDS011;63465;50.862;6.220;2023-04-25T06:51:18;9.73;;;2.83;;
74904;SDS011;63465;50.862;6.220;2023-04-25T06:53:43;8.50;;;3.37;;
74904;SDS011;63465;50.862;6.220;2023-04-25T06:56:08;4.07;;;2.60;;
74904;SDS011;63465;50.862;6.220;2023-04-25T06:58:33;6.80;;;3.03;;
74904;SDS011;63465;50.862;6.220;2023-04-25T07:00:59;7.30;;;3.30;;
74904;SDS011;63465;50.862;6.220;2023-04-25T07:03:24;10.63;;;3.63;;
74904;SDS011;63465;50.862;6.220;2023-04-25T07:05:50;11.67;;;3.27;;
74904;SDS011;63465;50.862;6.220;2023-04-25T07:08:15;5.60;;;2.77;;
74904;SDS011;63465;50.862;6.220;2023-04-25T07:10:41;9.20;;;3.30;;
74904;SDS011;63465;50.862;6.220;2023-04-25T07:13:06;10.80;;;3.50;;
74904;SDS011;63465;50.862;6.220;2023-04-25T07:15:32;11.40;;;3.50;;
74904;SDS011;63465;50.862;6.220;2023-04-25T07:17:57;7.63;;;3.10;;
74904;SDS011;63465;50.862;6.220;2023-04-25T07:20:22;13.93;;;4.03;;
74904;SDS011;63465;50.862;6.220;2023-04-25T07:22:48;9.73;;;3.00;;
74904;SDS011;63465;50.862;6.220;2023-04-25T07:25:14;16.70;;;3.97;;
74904;SDS011;63465;50.862;6.220;2023-04-25T07:27:40;10.90;;;3.30;;
74904;SDS011;63465;50.862;6.220;2023-04-25T07:30:05;6.53;;;3.03;;
74904;SDS011;63465;50.862;6.220;2023-04-25T07:32:31;6.93;;;2.30;;
74904;SDS011;63465;50.862;6.220;2023-04-25T07:34:57;7.90;;;3.10;;
74904;SDS011;63465;50.862;6.220;2023-04-25T07:37:22;16.47;;;2.90;;
74904;SDS011;63465;50.862;6.220;2023-04-25T07:39:47;10.00;;;2.90;;
74904;SDS011;63465;50.862;6.220;2023-04-25T07:42:13;9.07;;;2.90;;
74904;SDS011;63465;50.862;6.220;2023-04-25T07:44:38;10.53;;;3.77;;
74904;SDS011;63465;50.862;6.220;2023-04-25T07:47:05;13.53;;;3.20;;
74904;SDS011;63465;50.862;6.220;2023-04-25T07:49:37;11.00;;;3.00;;
74904;SDS011;63465;50.862;6.220;2023-04-25T07:52:04;9.13;;;2.93;;
74904;SDS011;63465;50.862;6.220;2023-04-25T07:54:31;6.30;;;3.20;;
74904;SDS011;63465;50.862;6.220;2023-04-25T07:56:57;12.60;;;3.10;;
74904;SDS011;63465;50.862;6.220;2023-04-25T07:59:22;19.23;;;2.67;;
74904;SDS011;63465;50.862;6.220;2023-04-25T08:01:48;10.30;;;2.53;;
74904;SDS011;63465;50.862;6.220;2023-04-25T08:04:13;6.53;;;2.13;;
74904;SDS011;63465;50.862;6.220;2023-04-25T08:06:38;9.13;;;2.83;;
74904;SDS011;63465;50.862;6.220;2023-04-25T08:09:05;12.00;;;2.50;;
74904;SDS011;63465;50.862;6.220;2023-04-25T08:11:31;6.30;;;2.00;;
74904;SDS011;63465;50.862;6.220;2023-04-25T08:13:56;9.23;;;2.87;;
74904;SDS011;63465;50.862;6.220;2023-04-25T08:16:21;8.97;;;2.93;;
74904;SDS011;63465;50.862;6.220;2023-04-25T08:18:47;3.50;;;2.00;;
74904;SDS011;63465;50.862;6.220;2023-04-25T08:21:12;9.53;;;2.30;;
74904;SDS011;63465;50.862;6.220;2023-04-25T08:23:38;6.33;;;1.80;;
74904;SDS011;63465;50.862;6.220;2023-04-25T08:26:04;3.47;;;1.90;;
74904;SDS011;63465;50.862;6.220;2023-04-25T08:28:30;5.70;;;2.33;;
74904;SDS011;63465;50.862;6.220;2023-04-25T08:30:56;5.60;;;2.20;;
74904;SDS011;63465;50.862;6.220;2023-04-25T08:33:21;4.90;;;1.90;;
74904;SDS011;63465;50.862;6.220;2023-04-25T08:35:46;6.67;;;2.37;;
74904;SDS011;63465;50.862;6.220;2023-04-25T08:38:12;3.77;;;1.93;;
74904;SDS011;63465;50.862;6.220;2023-04-25T08:40:37;5.87;;;2.67;;
74904;SDS011;63465;50.862;6.220;2023-04-25T08:43:04;3.00;;;2.17;;
74904;SDS011;63465;50.862;6.220;2023-04-25T08:45:36;4.20;;;1.97;;
74904;SDS011;63465;50.862;6.220;2023-04-25T08:48:14;2.67;;;2.47;;
74904;SDS011;63465;50.862;6.220;2023-04-25T08:50:44;6.43;;;1.80;;
74904;SDS011;63465;50.862;6.220;2023-04-25T08:53:14;14.37;;;2.67;;
74904;SDS011;63465;50.862;6.220;2023-04-25T08:55:43;3.23;;;1.83;;
74904;SDS011;63465;50.862;6.220;2023-04-25T08:58:10;3.03;;;1.60;;
74904;SDS011;63465;50.862;6.220;2023-04-25T09:00:36;6.83;;;2.17;;
74904;SDS011;63465;50.862;6.220;2023-04-25T09:03:02;5.03;;;2.57;;
74904;SDS011;63465;50.862;6.220;2023-04-25T09:05:28;6.17;;;2.73;;
74904;SDS011;63465;50.862;6.220;2023-04-25T09:07:54;3.60;;;2.20;;
74904;SDS011;63465;50.862;6.220;2023-04-25T09:10:19;6.83;;;2.10;;
74904;SDS011;63465;50.862;6.220;2023-04-25T09:12:44;8.10;;;2.60;;
74904;SDS011;63465;50.862;6.220;2023-04-25T09:15:18;4.03;;;1.83;;
74904;SDS011;63465;50.862;6.220;2023-04-25T09:17:44;7.00;;;1.80;;
74904;SDS011;63465;50.862;6.220;2023-04-25T09:20:13;6.60;;;2.00;;
74904;SDS011;63465;50.862;6.220;2023-04-25T09:22:40;5.77;;;2.40;;
74904;SDS011;63465;50.862;6.220;2023-04-25T09:25:09;7.43;;;2.53;;
74904;SDS011;63465;50.862;6.220;2023-04-25T09:27:36;6.77;;;2.57;;
74904;SDS011;63465;50.862;6.220;2023-04-25T09:30:01;5.70;;;2.20;;
74904;SDS011;63465;50.862;6.220;2023-04-25T09:32:28;7.67;;;2.60;;
74904;SDS011;63465;50.862;6.220;2023-04-25T09:34:54;4.50;;;2.70;;
74904;SDS011;63465;50.862;6.220;2023-04-25T09:37:26;9.17;;;2.20;;
74904;SDS011;63465;50.862;6.220;2023-04-25T09:39:59;4.23;;;2.27;;
74904;SDS011;63465;50.862;6.220;2023-04-25T09:42:28;5.93;;;2.50;;
74904;SDS011;63465;50.862;6.220;2023-04-25T09:44:56;8.40;;;2.67;;
74904;SDS011;63465;50.862;6.220;2023-04-25T09:47:25;9.37;;;3.23;;
74904;SDS011;63465;50.862;6.220;2023-04-25T09:49:53;4.50;;;2.60;;
74904;SDS011;63465;50.862;6.220;2023-04-25T09:52:23;6.23;;;2.50;;
74904;SDS011;63465;50.862;6.220;2023-04-25T09:54:50;3.57;;;2.43;;
74904;SDS011;63465;50.862;6.220;2023-04-25T09:57:19;7.57;;;2.27;;
74904;SDS011;63465;50.862;6.220;2023-04-25T09:59:49;8.00;;;2.83;;
74904;SDS011;63465;50.862;6.220;2023-04-25T10:02:18;6.47;;;2.83;;
74904;SDS011;63465;50.862;6.220;2023-04-25T10:04:47;5.80;;;2.60;;
74904;SDS011;63465;50.862;6.220;2023-04-25T10:07:16;7.50;;;2.50;;
74904;SDS011;63465;50.862;6.220;2023-04-25T10:09:42;5.80;;;1.87;;
74904;SDS011;63465;50.862;6.220;2023-04-25T10:12:10;5.63;;;2.27;;
74904;SDS011;63465;50.862;6.220;2023-04-25T10:14:36;9.47;;;2.50;;
74904;SDS011;63465;50.862;6.220;2023-04-25T10:17:02;12.33;;;2.70;;
74904;SDS011;63465;50.862;6.220;2023-04-25T10:19:27;8.57;;;4.07;;
74904;SDS011;63465;50.862;6.220;2023-04-25T10:22:17;8.30;;;2.37;;
74904;SDS011;63465;50.862;6.220;2023-04-25T10:24:43;6.87;;;3.17;;
74904;SDS011;63465;50.862;6.220;2023-04-25T10:27:12;6.73;;;2.77;;
74904;SDS011;63465;50.862;6.220;2023-04-25T10:29:38;5.40;;;2.73;;
74904;SDS011;63465;50.862;6.220;2023-04-25T10:32:03;8.93;;;3.50;;
74904;SDS011;63465;50.862;6.220;2023-04-25T10:34:50;11.20;;;3.00;;
74904;SDS011;63465;50.862;6.220;2023-04-25T10:37:15;7.33;;;2.37;;
74904;SDS011;63465;50.862;6.220;2023-04-25T10:39:40;4.60;;;2.40;;
74904;SDS011;63465;50.862;6.220;2023-04-25T10:42:07;5.03;;;2.67;;
74904;SDS011;63465;50.862;6.220;2023-04-25T10:44:33;11.47;;;2.70;;
74904;SDS011;63465;50.862;6.220;2023-04-25T10:46:59;20.50;;;3.60;;
74904;SDS011;63465;50.862;6.220;2023-04-25T10:49:42;5.00;;;2.20;;
74904;SDS011;63465;50.862;6.220;2023-04-25T10:52:11;4.20;;;2.70;;
74904;SDS011;63465;50.862;6.220;2023-04-25T10:54:46;4.00;;;2.10;;
74904;SDS011;63465;50.862;6.220;2023-04-25T11:00:15;8.23;;;2.73;;
74904;SDS011;63465;50.862;6.220;2023-04-25T11:02:53;5.97;;;2.50;;
74904;SDS011;63465;50.862;6.220;2023-04-25T11:05:26;3.57;;;2.20;;
74904;SDS011;63465;50.862;6.220;2023-04-25T11:07:56;3.40;;;2.40;;
74904;SDS011;63465;50.862;6.220;2023-04-25T11:10:26;7.10;;;2.77;;
74904;SDS011;63465;50.862;6.220;2023-04-25T11:12:52;6.63;;;2.10;;
74904;SDS011;63465;50.862;6.220;2023-04-25T11:15:18;9.40;;;2.50;;
74904;SDS011;63465;50.862;6.220;2023-04-25T11:17:43;5.43;;;2.30;;
74904;SDS011;63465;50.862;6.220;2023-04-25T11:20:11;6.57;;;2.10;;
74904;SDS011;63465;50.862;6.220;2023-04-25T11:22:38;7.40;;;3.70;;
74904;SDS011;63465;50.862;6.220;2023-04-25T11:25:08;23.77;;;6.07;;
74904;SDS011;63465;50.862;6.220;2023-04-25T11:27:36;7.67;;;2.50;;
74904;SDS011;63465;50.862;6.220;2023-04-25T11:30:14;5.03;;;2.23;;
74904;SDS011;63465;50.862;6.220;2023-04-25T11:32:43;5.30;;;2.50;;
74904;SDS011;63465;50.862;6.220;2023-04-25T11:35:09;12.77;;;2.30;;
74904;SDS011;63465;50.862;6.220;2023-04-25T11:37:35;5.30;;;2.20;;
74904;SDS011;63465;50.862;6.220;2023-04-25T11:40:02;6.77;;;2.57;;
74904;SDS011;63465;50.862;6.220;2023-04-25T11:42:28;4.93;;;2.30;;
74904;SDS011;63465;50.862;6.220;2023-04-25T11:44:53;7.20;;;2.50;;
74904;SDS011;63465;50.862;6.220;2023-04-25T11:47:19;5.20;;;2.20;;
74904;SDS011;63465;50.862;6.220;2023-04-25T11:49:44;4.67;;;2.30;;
74904;SDS011;63465;50.862;6.220;2023-04-25T11:52:10;4.80;;;2.40;;
74904;SDS011;63465;50.862;6.220;2023-04-25T11:54:36;4.33;;;1.77;;
74904;SDS011;63465;50.862;6.220;2023-04-25T11:57:02;5.67;;;2.33;;
74904;SDS011;63465;50.862;6.220;2023-04-25T11:59:28;5.40;;;2.27;;
74904;SDS011;63465;50.862;6.220;2023-04-25T12:01:53;4.47;;;2.60;;
74904;SDS011;63465;50.862;6.220;2023-04-25T12:04:22;5.03;;;1.83;;
74904;SDS011;63465;50.862;6.220;2023-04-25T12:06:49;3.80;;;2.20;;
74904;SDS011;63465;50.862;6.220;2023-04-25T12:09:17;4.03;;;2.10;;
74904;SDS011;63465;50.862;6.220;2023-04-25T12:11:52;5.57;;;1.90;;
74904;SDS011;63465;50.862;6.220;2023-04-25T12:14:23;2.90;;;1.60;;
74904;SDS011;63465;50.862;6.220;2023-04-25T12:16:54;5.77;;;2.10;;
74904;SDS011;63465;50.862;6.220;2023-04-25T12:19:22;1.43;;;1.33;;
74904;SDS011;63465;50.862;6.220;2023-04-25T12:21:47;3.73;;;2.00;;
74904;SDS011;63465;50.862;6.220;2023-04-25T12:24:23;5.23;;;1.80;;
74904;SDS011;63465;50.862;6.220;2023-04-25T12:29:30;1.77;;;1.53;;
74904;SDS011;63465;50.862;6.220;2023-04-25T12:31:57;3.47;;;1.80;;
74904;SDS011;63465;50.862;6.220;2023-04-25T12:34:23;2.90;;;1.63;;
74904;SDS011;63465;50.862;6.220;2023-04-25T12:36:49;6.83;;;2.30;;
74904;SDS011;63465;50.862;6.220;2023-04-25T12:39:19;3.77;;;2.07;;
74904;SDS011;63465;50.862;6.220;2023-04-25T12:41:46;3.50;;;1.50;;
74904;SDS011;63465;50.862;6.220;2023-04-25T12:44:13;6.77;;;2.80;;
74904;SDS011;63465;50.862;6.220;2023-04-25T12:46:38;8.67;;;2.37;;
74904;SDS011;63465;50.862;6.220;2023-04-25T12:49:05;2.87;;;1.80;;
74904;SDS011;63465;50.862;6.220;2023-04-25T12:51:32;4.27;;;1.60;;
74904;SDS011;63465;50.862;6.220;2023-04-25T12:53:59;3.40;;;1.80;;
74904;SDS011;63465;50.862;6.220;2023-04-25T12:56:25;4.63;;;2.03;;
74904;SDS011;63465;50.862;6.220;2023-04-25T12:58:51;4.13;;;1.43;;
74904;SDS011;63465;50.862;6.220;2023-04-25T13:01:17;1.60;;;1.50;;
74904;SDS011;63465;50.862;6.220;2023-04-25T13:03:42;5.47;;;1.80;;
74904;SDS011;63465;50.862;6.220;2023-04-25T13:06:08;3.37;;;1.77;;
74904;SDS011;63465;50.862;6.220;2023-04-25T13:08:33;7.73;;;1.70;;
74904;SDS011;63465;50.862;6.220;2023-04-25T13:10:59;3.03;;;1.90;;
74904;SDS011;63465;50.862;6.220;2023-04-25T13:13:25;4.27;;;1.90;;
74904;SDS011;63465;50.862;6.220;2023-04-25T13:15:52;9.37;;;2.20;;
74904;SDS011;63465;50.862;6.220;2023-04-25T13:18:17;3.43;;;2.00;;
74904;SDS011;63465;50.862;6.220;2023-04-25T13:20:43;3.60;;;2.40;;
74904;SDS011;63465;50.862;6.220;2023-04-25T13:23:09;8.43;;;2.10;;
74904;SDS011;63465;50.862;6.220;2023-04-25T13:25:34;5.10;;;1.87;;
74904;SDS011;63465;50.862;6.220;2023-04-25T13:28:00;3.43;;;2.50;;
74904;SDS011;63465;50.862;6.220;2023-04-25T13:30:26;5.90;;;2.17;;
74904;SDS011;63465;50.862;6.220;2023-04-25T13:32:52;3.17;;;1.83;;
74904;SDS011;63465;50.862;6.220;2023-04-25T13:35:17;2.20;;;1.30;;
74904;SDS011;63465;50.862;6.220;2023-04-25T13:37:43;5.13;;;1.83;;
74904;SDS011;63465;50.862;6.220;2023-04-25T13:40:09;1.67;;;1.50;;
74904;SDS011;63465;50.862;6.220;2023-04-25T13:42:39;1.13;;;1.13;;
74904;SDS011;63465;50.862;6.220;2023-04-25T13:45:05;1.77;;;1.43;;
74904;SDS011;63465;50.862;6.220;2023-04-25T13:47:31;14.90;;;2.30;;
74904;SDS011;63465;50.862;6.220;2023-04-25T13:49:56;4.07;;;1.77;;
74904;SDS011;63465;50.862;6.220;2023-04-25T13:52:22;4.30;;;1.70;;
74904;SDS011;63465;50.862;6.220;2023-04-25T13:54:49;3.50;;;1.80;;
74904;SDS011;63465;50.862;6.220;2023-04-25T13:57:15;1.70;;;1.60;;
74904;SDS011;63465;50.862;6.220;2023-04-25T13:59:41;2.60;;;1.33;;
74904;SDS011;63465;50.862;6.220;2023-04-25T14:02:06;4.67;;;2.03;;
74904;SDS011;63465;50.862;6.220;2023-04-25T14:04:32;4.10;;;2.00;;
74904;SDS011;63465;50.862;6.220;2023-04-25T14:06:58;2.97;;;1.80;;
74904;SDS011;63465;50.862;6.220;2023-04-25T14:09:23;3.00;;;1.87;;
74904;SDS011;63465;50.862;6.220;2023-04-25T14:11:54;9.40;;;2.63;;
74904;SDS011;63465;50.862;6.220;2023-04-25T14:14:20;6.17;;;4.07;;
74904;SDS011;63465;50.862;6.220;2023-04-25T14:16:46;10.97;;;3.93;;
74904;SDS011;63465;50.862;6.220;2023-04-25T14:19:16;4.47;;;2.57;;
74904;SDS011;63465;50.862;6.220;2023-04-25T14:21:42;2.17;;;2.07;;
74904;SDS011;63465;50.862;6.220;2023-04-25T14:24:08;4.67;;;2.40;;
74904;SDS011;63465;50.862;6.220;2023-04-25T14:26:35;5.83;;;2.57;;
74904;SDS011;63465;50.862;6.220;2023-04-25T14:29:01;2.20;;;1.70;;
74904;SDS011;63465;50.862;6.220;2023-04-25T14:31:28;5.50;;;4.33;;
74904;SDS011;63465;50.862;6.220;2023-04-25T14:33:53;2.80;;;1.83;;
74904;SDS011;63465;50.862;6.220;2023-04-25T14:36:18;6.67;;;4.50;;
74904;SDS011;63465;50.862;6.220;2023-04-25T14:38:44;2.87;;;2.30;;
74904;SDS011;63465;50.862;6.220;2023-04-25T14:41:09;5.37;;;2.50;;
74904;SDS011;63465;50.862;6.220;2023-04-25T14:43:35;4.00;;;2.80;;
74904;SDS011;63465;50.862;6.220;2023-04-25T14:46:01;5.90;;;2.50;;
74904;SDS011;63465;50.862;6.220;2023-04-25T14:48:27;3.93;;;2.97;;